Time;durP1;ratioP1;P1;durP2;ratioP2;P2;SDS_P1;SDS_P2;PMS_P1;PMS_P2;Temp;Humidity;BMP_temperature;BMP_pressure;BME280_temperature;BME280_humidity;BME280_pressure;Samples;Min_cycle;Max_cycle;Signal;HPM_P1;HPM_P2
2022/02/05 00:02:16;;;;;;;2.83;1.50;;;3.80;99.90;;;;;;5055463;28;20257;-81
2022/02/05 00:04:43;;;;;;;0.93;0.93;;;3.70;99.90;;;;;;5067729;28;20214;-81
2022/02/05 00:07:14;;;;;;;1.10;1.00;;;3.70;99.90;;;;;;5066775;28;20227;-81
2022/02/05 00:09:59;;;;;;;2.10;1.13;;;3.60;99.90;;;;;;5066726;28;20241;-82
2022/02/05 00:12:42;;;;;;;1.65;1.55;;;3.60;99.90;;;;;;5068346;28;20232;-81
2022/02/05 00:40:04;;;;;;;3.88;2.42;;;3.10;99.90;;;;;;5025077;28;20692;-81
2022/02/05 00:42:37;;;;;;;3.17;1.85;;;2.90;99.90;;;;;;5068192;28;20628;-82
2022/02/05 00:45:08;;;;;;;2.00;1.60;;;2.90;99.90;;;;;;5066784;28;20717;-82
2022/02/05 00:47:39;;;;;;;2.20;1.50;;;2.80;99.90;;;;;;5067904;28;20214;-82
2022/02/05 00:50:13;;;;;;;1.85;1.15;;;2.80;99.90;;;;;;5067589;28;20608;-81
2022/02/05 00:52:40;;;;;;;1.00;1.00;;;2.60;99.80;;;;;;5068177;28;20195;-82
2022/02/05 00:55:11;;;;;;;2.53;1.60;;;2.60;99.30;;;;;;5052314;28;20228;-81
2022/02/05 00:57:47;;;;;;;6.07;1.05;;;2.50;99.00;;;;;;5051849;28;20208;-82
2022/02/05 01:00:19;;;;;;;1.40;1.30;;;2.50;98.80;;;;;;5067196;28;20672;-81
2022/02/05 01:02:47;;;;;;;1.27;1.20;;;2.40;98.50;;;;;;5067955;28;20281;-81
2022/02/05 01:05:17;;;;;;;2.72;0.95;;;2.30;98.20;;;;;;5069195;28;20199;-81
2022/02/05 01:07:45;;;;;;;9.38;1.83;;;2.00;99.90;;;;;;5071254;28;20199;-82
2022/02/05 01:10:12;;;;;;;1.85;1.52;;;2.20;98.00;;;;;;5071015;28;20203;-81
2022/02/05 01:12:43;;;;;;;1.58;1.40;;;2.30;98.00;;;;;;5071945;28;20202;-82
2022/02/05 01:15:12;;;;;;;2.05;1.00;;;2.30;97.50;;;;;;5070429;28;20672;-81
2022/02/05 01:17:45;;;;;;;2.00;1.80;;;2.20;97.80;;;;;;5071785;28;20223;-82
2022/02/05 01:23:06;;;;;;;3.22;1.98;;;2.10;97.90;;;;;;5062989;28;20245;-82
2022/02/05 01:25:38;;;;;;;2.03;1.42;;;2.10;98.10;;;;;;5070667;28;20500;-82
2022/02/05 01:28:11;;;;;;;2.90;1.40;;;2.10;98.40;;;;;;5071516;28;20208;-82
2022/02/05 01:30:42;;;;;;;2.38;1.58;;;2.00;99.90;;;;;;5070415;28;20636;-82
2022/02/05 01:33:25;;;;;;;1.17;1.13;;;2.00;98.30;;;;;;5070394;28;20203;-82
2022/02/05 01:36:11;;;;;;;1.70;1.52;;;2.00;98.30;;;;;;5070731;28;20309;-82
2022/02/05 01:52:25;;;;;;;1.85;1.23;;;1.70;99.10;;;;;;5068135;28;20215;-82
2022/02/05 01:57:48;;;;;;;2.05;1.48;;;1.60;99.20;;;;;;5070297;28;20269;-82
2022/02/05 02:05:55;;;;;;;1.52;1.42;;;1.70;99.40;;;;;;5070067;28;20280;-82
2022/02/05 02:16:51;;;;;;;1.52;1.25;;;1.60;99.70;;;;;;5053488;28;20199;-82
2022/02/05 02:19:27;;;;;;;2.05;1.50;;;1.60;99.90;;;;;;5069972;28;20199;-82
2022/02/05 02:22:02;;;;;;;1.20;1.10;;;1.50;99.90;;;;;;5070861;28;20234;-82
2022/02/05 02:24:39;;;;;;;1.75;1.65;;;1.50;99.90;;;;;;5069444;28;20203;-82
2022/02/05 02:27:19;;;;;;;1.27;1.20;;;2.20;99.90;;;;;;5070418;28;20256;-82
2022/02/05 02:29:58;;;;;;;2.95;1.80;;;1.50;99.70;;;;;;5070574;28;20203;-82
2022/02/05 02:32:27;;;;;;;1.83;1.20;;;1.60;99.90;;;;;;5069722;28;20625;-82
2022/02/05 02:35:00;;;;;;;2.10;1.80;;;1.50;99.90;;;;;;5069541;28;20691;-82
2022/02/05 02:37:33;;;;;;;3.50;1.70;;;1.50;99.90;;;;;;5070441;28;20207;-83
2022/02/05 02:40:07;;;;;;;2.35;1.38;;;1.50;99.60;;;;;;5069849;28;20268;-82
2022/02/05 02:42:38;;;;;;;11.57;1.70;;;1.50;99.90;;;;;;5069850;28;20622;-82
2022/02/05 02:45:05;;;;;;;2.05;1.67;;;1.50;99.90;;;;;;5061693;28;20701;-82
2022/02/05 02:47:32;;;;;;;1.50;1.40;;;1.60;99.90;;;;;;5069729;28;20210;-82
2022/02/05 02:50:04;;;;;;;2.05;1.85;;;1.50;99.90;;;;;;5069949;28;20673;-82
2022/02/05 02:58:04;;;;;;;3.10;1.90;;;1.40;99.90;;;;;;5069518;28;20250;-82
2022/02/05 03:00:31;;;;;;;3.15;1.60;;;1.60;99.90;;;;;;5068626;28;20200;-83
2022/02/05 03:02:58;;;;;;;5.75;1.48;;;1.40;99.90;;;;;;5069336;28;20191;-83
2022/02/05 03:05:26;;;;;;;2.80;1.25;;;1.40;99.90;;;;;;5068830;28;20218;-83
2022/02/05 03:07:54;;;;;;;3.92;2.08;;;1.30;99.90;;;;;;5068686;28;20233;-82
2022/02/05 03:10:21;;;;;;;4.28;2.22;;;1.30;99.90;;;;;;5069465;28;20248;-82
2022/02/05 03:12:48;;;;;;;1.90;1.65;;;1.40;99.90;;;;;;5069200;28;20448;-83
2022/02/05 03:15:19;;;;;;;3.63;1.73;;;1.30;99.90;;;;;;5068153;28;20198;-83
2022/02/05 03:17:55;;;;;;;2.97;2.00;;;1.20;99.90;;;;;;5068868;28;20195;-83
2022/02/05 03:20:23;;;;;;;3.67;2.60;;;1.20;99.90;;;;;;5059535;28;20567;-82
2022/02/05 03:22:50;;;;;;;3.58;2.35;;;1.20;99.90;;;;;;5052251;28;20223;-82
2022/02/05 03:25:18;;;;;;;2.40;1.85;;;1.60;99.90;;;;;;5069056;28;20253;-82
2022/02/05 03:27:45;;;;;;;3.05;2.10;;;1.40;99.90;;;;;;5068483;28;20298;-82
2022/02/05 03:30:12;;;;;;;3.33;2.20;;;1.30;99.90;;;;;;5069156;28;20252;-83
2022/02/05 03:32:39;;;;;;;5.07;2.40;;;1.20;99.90;;;;;;5069016;28;20602;-83
2022/02/05 03:35:07;;;;;;;2.45;2.10;;;1.20;99.90;;;;;;5068760;28;20450;-82
2022/02/05 03:37:34;;;;;;;1.80;1.70;;;1.20;99.90;;;;;;5069129;28;20207;-82
2022/02/05 03:40:01;;;;;;;3.17;2.15;;;1.20;99.90;;;;;;5061189;28;20288;-82
2022/02/05 03:42:29;;;;;;;1.85;1.70;;;1.20;99.90;;;;;;5068444;28;20696;-83
2022/02/05 03:44:56;;;;;;;4.20;2.42;;;1.20;99.90;;;;;;5068333;28;20249;-82
2022/02/05 03:47:23;;;;;;;2.20;2.00;;;1.20;99.90;;;;;;5068294;28;20223;-82
2022/02/05 03:49:51;;;;;;;3.45;2.33;;;1.30;99.90;;;;;;5068802;28;20226;-82
2022/02/05 03:52:18;;;;;;;4.75;2.38;;;1.30;99.90;;;;;;5068746;28;20203;-82
2022/02/05 03:54:45;;;;;;;3.28;2.15;;;1.20;99.90;;;;;;5057357;28;20231;-82
2022/02/05 03:57:12;;;;;;;2.30;2.10;;;1.20;99.90;;;;;;5068686;28;20200;-82
2022/02/05 03:59:41;;;;;;;3.40;2.15;;;1.20;99.90;;;;;;5068797;28;20290;-82
2022/02/05 04:02:08;;;;;;;2.45;2.25;;;1.10;99.90;;;;;;5068405;28;20238;-82
2022/02/05 04:04:35;;;;;;;3.20;2.72;;;1.10;99.90;;;;;;5067715;28;20293;-82
2022/02/05 04:07:02;;;;;;;2.55;2.10;;;1.10;99.90;;;;;;5056306;28;20672;-82
2022/02/05 04:09:35;;;;;;;3.17;2.30;;;1.10;99.90;;;;;;5068093;28;20664;-82
2022/02/05 04:17:41;;;;;;;2.10;1.77;;;1.20;99.90;;;;;;5035684;28;20208;-82
2022/02/05 04:20:09;;;;;;;3.70;2.38;;;1.20;99.90;;;;;;5056013;28;20295;-81
2022/02/05 04:22:35;;;;;;;2.70;2.13;;;1.20;99.90;;;;;;5068123;28;20318;-82
2022/02/05 04:25:02;;;;;;;2.95;2.13;;;1.30;99.90;;;;;;5067404;28;20202;-82
2022/02/05 04:27:29;;;;;;;2.65;2.42;;;1.30;99.90;;;;;;5068498;28;20253;-82
2022/02/05 04:29:58;;;;;;;3.38;2.55;;;1.40;99.90;;;;;;5067768;28;20549;-82
2022/02/05 04:32:24;;;;;;;3.22;1.88;;;1.60;99.90;;;;;;5067337;28;20204;-82
2022/02/05 04:34:51;;;;;;;2.45;2.00;;;1.80;99.90;;;;;;5059931;28;20254;-82
2022/02/05 04:37:21;;;;;;;2.25;2.05;;;1.60;99.90;;;;;;5067535;28;20231;-82
2022/02/05 04:39:55;;;;;;;8.55;2.80;;;1.60;99.90;;;;;;5066060;28;20599;-82
2022/02/05 04:42:24;;;;;;;4.95;2.80;;;1.70;99.90;;;;;;5068653;28;20234;-82
2022/02/05 04:45:15;;;;;;;4.60;2.55;;;1.70;99.90;;;;;;5052810;28;20546;-82
2022/02/05 04:48:07;;;;;;;3.35;2.30;;;1.70;99.90;;;;;;5048178;28;20261;-82
2022/02/05 04:51:06;;;;;;;2.85;2.05;;;1.70;99.90;;;;;;5047972;28;20673;-82
2022/02/05 04:53:48;;;;;;;8.40;2.35;;;1.90;99.90;;;;;;5050219;28;20318;-81
2022/02/05 04:56:25;;;;;;;4.03;2.50;;;2.00;99.90;;;;;;5052207;28;20677;-82
2022/02/05 04:59:22;;;;;;;3.05;2.15;;;2.20;99.90;;;;;;5053304;28;20249;-82
2022/02/05 05:02:11;;;;;;;2.42;1.92;;;2.00;99.90;;;;;;5063838;28;20250;-82
2022/02/05 05:04:45;;;;;;;4.07;2.55;;;2.10;99.90;;;;;;5057420;28;20199;-82
2022/02/05 05:10:02;;;;;;;2.75;2.55;;;2.20;99.90;;;;;;5050239;28;20249;-82
2022/02/05 05:12:37;;;;;;;4.82;2.78;;;2.20;99.90;;;;;;5058081;28;20280;-82
2022/02/05 05:15:33;;;;;;;2.97;2.72;;;2.40;99.90;;;;;;5052010;28;20728;-82
2022/02/05 05:20:57;;;;;;;3.28;2.45;;;2.10;99.90;;;;;;5061422;28;20561;-82
2022/02/05 05:23:24;;;;;;;3.13;2.75;;;2.20;99.90;;;;;;5067517;28;20219;-82
2022/02/05 05:25:51;;;;;;;2.42;2.22;;;2.20;99.80;;;;;;5066827;28;20195;-82
2022/02/05 05:28:18;;;;;;;5.20;3.00;;;2.10;99.80;;;;;;5067345;28;20207;-82
2022/02/05 05:30:45;;;;;;;4.53;3.08;;;2.10;99.90;;;;;;5066297;28;20199;-83
2022/02/05 05:33:12;;;;;;;2.67;2.47;;;1.90;99.90;;;;;;5067766;28;20199;-82
2022/02/05 05:35:40;;;;;;;4.20;2.83;;;2.10;99.80;;;;;;5066547;28;20191;-82
2022/02/05 05:38:09;;;;;;;5.38;3.30;;;2.10;99.70;;;;;;5067489;28;20220;-82
2022/02/05 05:40:37;;;;;;;3.35;2.42;;;2.10;99.80;;;;;;5067036;28;20276;-82
2022/02/05 05:43:16;;;;;;;6.38;2.92;;;2.20;99.90;;;;;;5067099;28;20601;-82
2022/02/05 05:46:03;;;;;;;2.55;2.35;;;2.30;99.80;;;;;;5046894;28;20207;-82
2022/02/05 05:48:42;;;;;;;4.78;2.80;;;2.30;99.50;;;;;;5067031;28;20218;-82
2022/02/05 05:51:08;;;;;;;3.30;2.55;;;2.30;99.40;;;;;;5067749;28;20214;-82
2022/02/05 05:53:37;;;;;;;3.40;2.83;;;2.20;99.90;;;;;;5067814;28;20245;-82
2022/02/05 05:56:04;;;;;;;2.83;2.53;;;2.20;99.10;;;;;;5063332;28;20205;-82
2022/02/05 05:58:31;;;;;;;5.68;2.70;;;2.20;99.40;;;;;;5071171;28;20253;-82
2022/02/05 06:00:58;;;;;;;4.03;1.92;;;2.30;99.60;;;;;;5070887;28;20237;-82
2022/02/05 06:03:25;;;;;;;3.05;2.72;;;2.20;99.30;;;;;;5068978;28;20227;-82
2022/02/05 06:05:52;;;;;;;6.70;3.13;;;2.30;99.90;;;;;;5070271;28;20285;-82
2022/02/05 06:08:19;;;;;;;2.70;2.25;;;2.30;99.40;;;;;;5070160;28;21016;-82
2022/02/05 06:10:47;;;;;;;2.33;2.20;;;3.40;99.90;;;;;;5063431;28;20261;-82
2022/02/05 06:13:14;;;;;;;2.72;1.90;;;2.30;99.80;;;;;;5071163;28;20282;-82
2022/02/05 06:15:43;;;;;;;3.85;2.70;;;3.40;99.90;;;;;;5069851;28;20739;-82
2022/02/05 06:18:10;;;;;;;2.80;2.60;;;2.40;99.90;;;;;;5070530;28;20661;-82
2022/02/05 06:20:38;;;;;;;6.35;3.50;;;2.50;99.60;;;;;;5069801;28;20204;-82
2022/02/05 06:23:05;;;;;;;3.70;3.10;;;2.40;99.30;;;;;;5070157;28;20241;-82
2022/02/05 06:25:33;;;;;;;2.65;2.45;;;2.40;99.70;;;;;;5070343;28;20195;-82
2022/02/05 06:28:01;;;;;;;4.80;2.83;;;2.30;99.70;;;;;;5069208;28;20653;-82
2022/02/05 06:30:28;;;;;;;5.60;2.63;;;2.30;99.70;;;;;;5069919;28;20232;-81
2022/02/05 06:32:55;;;;;;;4.57;3.13;;;2.30;99.90;;;;;;5070088;28;20253;-82
2022/02/05 06:35:22;;;;;;;3.70;2.72;;;2.50;99.80;;;;;;5069127;28;20223;-82
2022/02/05 06:37:49;;;;;;;3.30;2.30;;;2.50;99.50;;;;;;5070416;28;20272;-82
2022/02/05 06:40:16;;;;;;;3.83;3.08;;;2.50;99.60;;;;;;5069999;28;20968;-83
2022/02/05 06:42:45;;;;;;;4.22;2.80;;;2.60;99.90;;;;;;5069715;28;20769;-83
2022/02/05 06:45:14;;;;;;;3.95;2.53;;;2.50;99.40;;;;;;5069101;28;20673;-83
2022/02/05 06:47:41;;;;;;;4.50;3.28;;;2.60;99.90;;;;;;5069650;28;20288;-83
2022/02/05 06:50:08;;;;;;;3.90;2.40;;;2.30;99.50;;;;;;5070107;28;20227;-83
2022/02/05 06:52:36;;;;;;;3.55;2.13;;;2.40;99.50;;;;;;5069717;28;20231;-83
2022/02/05 06:55:03;;;;;;;4.10;2.50;;;2.30;99.80;;;;;;5068526;28;20196;-83
2022/02/05 06:57:31;;;;;;;3.65;2.00;;;2.00;99.90;;;;;;5069792;28;20199;-83
2022/02/05 06:59:58;;;;;;;4.13;2.55;;;2.20;99.90;;;;;;5068733;28;20751;-83
2022/02/05 07:02:26;;;;;;;2.97;2.60;;;2.20;99.90;;;;;;5067460;28;20241;-82
2022/02/05 07:04:53;;;;;;;3.35;3.05;;;2.30;99.90;;;;;;5067060;28;20202;-83
2022/02/05 07:07:20;;;;;;;3.92;2.70;;;2.30;99.90;;;;;;5068791;28;20195;-82
2022/02/05 07:09:46;;;;;;;7.65;2.97;;;2.40;99.90;;;;;;5067995;28;20532;-83
2022/02/05 07:12:13;;;;;;;4.07;2.72;;;2.20;99.90;;;;;;5068692;28;20294;-83
2022/02/05 07:14:47;;;;;;;7.18;3.63;;;2.30;99.90;;;;;;5067089;28;20211;-82
2022/02/05 07:17:23;;;;;;;5.50;2.40;;;2.30;99.90;;;;;;5068647;28;20235;-83
2022/02/05 07:20:02;;;;;;;5.05;2.90;;;2.30;99.90;;;;;;5066963;28;20615;-82
2022/02/05 07:22:34;;;;;;;3.40;3.10;;;2.30;99.90;;;;;;5066889;28;20235;-83
2022/02/05 07:30:26;;;;;;;4.07;2.60;;;2.40;99.70;;;;;;5067890;28;20352;-83
2022/02/05 07:32:53;;;;;;;3.28;2.90;;;2.50;99.60;;;;;;5066624;28;20219;-83
2022/02/05 07:35:22;;;;;;;3.47;2.92;;;2.40;99.60;;;;;;5066375;28;20203;-83
2022/02/05 07:37:50;;;;;;;5.45;3.38;;;2.20;99.90;;;;;;5063873;28;20327;-83
2022/02/05 07:40:18;;;;;;;3.00;2.67;;;2.30;99.90;;;;;;5068103;28;20294;-83
2022/02/05 07:42:45;;;;;;;3.78;2.63;;;2.30;99.90;;;;;;5067570;28;20231;-83
2022/02/05 07:45:12;;;;;;;4.63;2.78;;;2.50;99.90;;;;;;5067418;28;20287;-83
2022/02/05 07:47:39;;;;;;;2.63;2.35;;;2.40;99.90;;;;;;5067292;28;20252;-83
2022/02/05 07:50:06;;;;;;;2.67;2.47;;;2.40;99.90;;;;;;5067746;28;20298;-83
2022/02/05 07:52:35;;;;;;;4.43;2.63;;;2.40;99.90;;;;;;5068050;28;20700;-83
2022/02/05 07:55:02;;;;;;;4.88;2.20;;;2.50;99.90;;;;;;5064271;28;20298;-83
2022/02/05 07:57:30;;;;;;;3.92;2.80;;;2.50;99.80;;;;;;5068276;28;20309;-82
2022/02/05 07:59:56;;;;;;;2.80;2.60;;;2.50;99.90;;;;;;5067891;28;20206;-83
2022/02/05 08:02:23;;;;;;;7.03;2.70;;;2.70;99.90;;;;;;5067911;28;20754;-82
2022/02/05 08:04:50;;;;;;;3.80;2.60;;;2.70;99.90;;;;;;5067172;28;20213;-83
2022/02/05 08:07:18;;;;;;;3.40;2.72;;;3.30;99.80;;;;;;5068428;28;20304;-83
2022/02/05 08:09:54;;;;;;;3.80;2.58;;;2.80;99.90;;;;;;5068027;28;20195;-83
2022/02/05 08:12:21;;;;;;;3.67;2.40;;;2.70;99.90;;;;;;5060874;28;20215;-83
2022/02/05 08:14:51;;;;;;;2.92;2.22;;;2.80;99.10;;;;;;5065950;28;20219;-83
2022/02/05 08:17:21;;;;;;;2.85;2.40;;;2.80;98.80;;;;;;5066677;28;20199;-83
2022/02/05 08:19:48;;;;;;;3.40;2.55;;;2.70;98.90;;;;;;5067808;28;20555;-83
2022/02/05 08:22:15;;;;;;;2.88;2.60;;;2.70;98.90;;;;;;5066457;28;20251;-82
2022/02/05 08:24:44;;;;;;;1.92;1.80;;;2.80;98.70;;;;;;5065494;28;20248;-83
2022/02/05 08:27:12;;;;;;;2.78;2.15;;;2.80;98.50;;;;;;5066240;28;20210;-83
2022/02/05 08:29:45;;;;;;;2.42;2.22;;;2.80;99.90;;;;;;5061594;28;20272;-83
2022/02/05 08:32:12;;;;;;;3.33;2.05;;;2.80;98.60;;;;;;5066462;28;20700;-83
2022/02/05 08:34:40;;;;;;;4.35;2.63;;;2.80;99.90;;;;;;5064742;28;20703;-83
2022/02/05 08:37:07;;;;;;;3.10;1.63;;;3.00;98.30;;;;;;5066765;28;20278;-83
2022/02/05 08:39:34;;;;;;;3.42;2.40;;;3.00;97.80;;;;;;5065497;28;20235;-83
2022/02/05 08:42:02;;;;;;;5.85;2.50;;;3.10;97.60;;;;;;5064323;28;20302;-83
2022/02/05 08:44:31;;;;;;;1.85;1.75;;;3.20;99.90;;;;;;5063106;28;20701;-83
2022/02/05 08:46:58;;;;;;;3.75;2.13;;;3.20;97.90;;;;;;5066665;28;20203;-83
2022/02/05 08:49:28;;;;;;;1.85;1.60;;;3.30;98.20;;;;;;5066992;28;20268;-84
2022/02/05 08:51:56;;;;;;;2.22;2.03;;;3.40;97.60;;;;;;5068155;28;20282;-83
2022/02/05 08:54:24;;;;;;;5.57;2.00;;;3.50;97.60;;;;;;5060124;28;20219;-83
2022/02/05 08:56:52;;;;;;;2.33;2.13;;;3.20;99.90;;;;;;5067434;28;20207;-84
2022/02/05 08:59:19;;;;;;;2.08;1.85;;;3.60;99.90;;;;;;5067947;28;20196;-83
2022/02/05 09:01:53;;;;;;;3.28;2.60;;;3.70;97.20;;;;;;5067994;28;20196;-83
2022/02/05 09:04:28;;;;;;;2.88;1.63;;;3.70;99.90;;;;;;5055940;28;20284;-84
2022/02/05 09:06:58;;;;;;;4.05;1.63;;;3.70;96.70;;;;;;5063541;28;20318;-83
2022/02/05 09:09:35;;;;;;;3.10;2.17;;;3.80;98.50;;;;;;5065761;28;20249;-84
2022/02/05 09:12:17;;;;;;;2.25;2.05;;;3.90;96.70;;;;;;5067907;28;20287;-83
2022/02/05 09:14:47;;;;;;;5.03;1.90;;;4.00;99.90;;;;;;5067733;28;20211;-83
2022/02/05 09:17:15;;;;;;;1.65;1.55;;;4.00;96.60;;;;;;5067713;28;20214;-84
2022/02/05 09:19:42;;;;;;;3.38;2.20;;;3.90;95.50;;;;;;5067170;28;20276;-83
2022/02/05 09:22:11;;;;;;;3.53;2.20;;;4.00;95.90;;;;;;5067452;28;20653;-83
2022/02/05 09:24:39;;;;;;;4.13;2.47;;;4.10;95.70;;;;;;5066827;28;20227;-83
2022/02/05 09:27:10;;;;;;;5.07;1.73;;;4.10;95.60;;;;;;5070893;28;20218;-83
2022/02/05 09:29:43;;;;;;;6.28;2.05;;;4.10;95.30;;;;;;5071302;28;20206;-83
2022/02/05 09:32:10;;;;;;;3.15;1.95;;;4.20;95.70;;;;;;5070430;28;20257;-83
2022/02/05 09:34:38;;;;;;;2.90;1.50;;;4.20;94.80;;;;;;5070965;28;20199;-83
2022/02/05 09:37:06;;;;;;;4.90;2.13;;;4.20;95.40;;;;;;5070141;28;20739;-83
2022/02/05 09:39:33;;;;;;;2.83;2.30;;;4.20;95.00;;;;;;5070287;28;21664;-83
2022/02/05 09:42:02;;;;;;;4.18;2.00;;;4.30;95.40;;;;;;5071127;28;20215;-83
2022/02/05 09:44:30;;;;;;;3.33;2.00;;;4.30;95.10;;;;;;5070115;28;21397;-83
2022/02/05 09:46:57;;;;;;;2.90;2.60;;;4.40;99.30;;;;;;5070709;28;20722;-83
2022/02/05 09:49:26;;;;;;;4.55;3.13;;;4.60;95.00;;;;;;5068254;28;20556;-83
2022/02/05 09:52:07;;;;;;;3.15;1.85;;;4.60;94.70;;;;;;5071043;28;20192;-84
2022/02/05 09:54:34;;;;;;;2.90;2.60;;;4.60;99.20;;;;;;5061828;28;20278;-84
2022/02/05 09:57:01;;;;;;;2.63;1.63;;;4.60;94.10;;;;;;5068091;28;20226;-84
2022/02/05 09:59:28;;;;;;;3.15;2.30;;;4.20;99.10;;;;;;5069467;28;20272;-83
2022/02/05 10:02:23;;;;;;;3.20;1.45;;;4.40;95.30;;;;;;5063607;28;20628;-83
2022/02/05 10:04:54;;;;;;;2.35;1.95;;;4.50;93.60;;;;;;5070080;28;20233;-83
2022/02/05 10:07:24;;;;;;;4.05;1.67;;;4.50;94.20;;;;;;5070201;28;20200;-83
2022/02/05 10:09:55;;;;;;;2.08;1.42;;;4.50;99.70;;;;;;5070196;28;20195;-83
2022/02/05 10:12:22;;;;;;;2.65;1.63;;;4.60;93.90;;;;;;5070725;28;20195;-83
2022/02/05 10:14:54;;;;;;;1.65;1.55;;;4.70;93.90;;;;;;5069940;28;20286;-83
2022/02/05 10:17:22;;;;;;;3.13;2.85;;;4.80;93.50;;;;;;5063967;28;20226;-83
2022/02/05 10:19:50;;;;;;;6.07;3.47;;;4.80;93.50;;;;;;5069964;28;20274;-83
2022/02/05 10:22:19;;;;;;;8.23;6.75;;;5.00;93.70;;;;;;5070214;28;20750;-83
2022/02/05 10:24:51;;;;;;;3.30;3.00;;;4.90;93.10;;;;;;5069669;28;20237;-83
2022/02/05 10:27:28;;;;;;;7.15;5.15;;;5.00;93.70;;;;;;5070367;28;20568;-83
2022/02/05 10:30:07;;;;;;;6.85;4.30;;;5.00;93.00;;;;;;5068992;28;20637;-83
2022/02/05 10:32:40;;;;;;;7.18;3.00;;;5.10;98.90;;;;;;5069045;28;20628;-83
2022/02/05 10:35:19;;;;;;;6.75;3.75;;;5.10;93.00;;;;;;5069030;28;20791;-83
2022/02/05 10:37:53;;;;;;;2.25;2.15;;;5.00;92.00;;;;;;5068805;28;20187;-84
2022/02/05 10:40:23;;;;;;;6.43;2.92;;;5.10;92.80;;;;;;5053313;28;20220;-83
2022/02/05 10:45:40;;;;;;;6.55;3.92;;;5.20;93.00;;;;;;5065248;28;20312;-84
2022/02/05 10:48:08;;;;;;;11.93;8.15;;;5.30;91.20;;;;;;5069687;28;20195;-84
2022/02/05 10:50:35;;;;;;;8.10;5.43;;;5.30;91.20;;;;;;5068600;28;20203;-84
2022/02/05 10:53:07;;;;;;;2.83;2.60;;;5.10;91.80;;;;;;5069222;28;20208;-83
2022/02/05 10:55:48;;;;;;;4.72;3.60;;;5.20;91.80;;;;;;5066287;28;20195;-84
2022/02/05 10:58:40;;;;;;;16.33;12.30;;;5.10;95.80;;;;;;5069333;28;20195;-83
2022/02/05 11:06:59;;;;;;;5.50;4.60;;;5.30;92.20;;;;;;5046191;28;20223;-84
2022/02/05 11:09:26;;;;;;;7.80;5.88;;;5.50;91.00;;;;;;5068504;28;20562;-84
2022/02/05 11:20:10;;;;;;;2.17;1.95;;;5.60;88.10;;;;;;5068426;28;20203;-84
2022/02/05 11:22:40;;;;;;;6.72;2.33;;;5.70;91.90;;;;;;5062080;28;20228;-85
2022/02/05 11:25:09;;;;;;;2.30;2.10;;;5.80;94.40;;;;;;5065690;28;20285;-84
2022/02/05 11:27:41;;;;;;;2.35;1.40;;;5.70;88.20;;;;;;5068712;28;20298;-85
2022/02/05 11:30:31;;;;;;;3.33;1.50;;;5.90;90.30;;;;;;5067192;28;20758;-85
2022/02/05 11:33:03;;;;;;;4.90;1.55;;;5.90;92.20;;;;;;5066990;28;20199;-85
2022/02/05 11:35:43;;;;;;;5.13;1.60;;;5.90;86.30;;;;;;5066277;28;20227;-84
2022/02/05 11:38:10;;;;;;;1.05;1.00;;;5.90;85.80;;;;;;5061283;28;20840;-85
2022/02/05 11:40:48;;;;;;;1.60;1.00;;;6.10;86.10;;;;;;5067503;28;20195;-85
2022/02/05 11:43:19;;;;;;;1.45;1.35;;;6.00;85.10;;;;;;5066890;28;20257;-85
2022/02/05 11:45:46;;;;;;;2.22;1.50;;;5.70;91.60;;;;;;5065983;28;20231;-85
2022/02/05 11:48:39;;;;;;;3.80;1.10;;;5.70;84.90;;;;;;5067066;28;20199;-85
2022/02/05 11:51:17;;;;;;;3.53;2.53;;;5.70;86.30;;;;;;5045624;28;20712;-85
2022/02/05 11:54:07;;;;;;;2.13;1.30;;;5.80;85.70;;;;;;5065872;28;20648;-85
2022/02/05 11:56:50;;;;;;;3.17;1.77;;;5.90;85.30;;;;;;5065236;28;20574;-85
2022/02/05 11:59:19;;;;;;;1.50;1.35;;;6.00;92.40;;;;;;5068298;28;20206;-85
2022/02/05 12:01:46;;;;;;;2.63;1.50;;;6.00;85.40;;;;;;5067305;28;20191;-84
2022/02/05 12:04:16;;;;;;;10.18;1.50;;;6.00;84.60;;;;;;5057777;28;20227;-85
2022/02/05 12:06:54;;;;;;;1.60;1.27;;;6.10;82.60;;;;;;5068847;28;20195;-85
2022/02/05 12:09:39;;;;;;;4.95;1.85;;;6.10;90.80;;;;;;5066917;28;20562;-85
2022/02/05 12:12:45;;;;;;;2.78;1.15;;;5.70;90.50;;;;;;5067336;28;20278;-85
2022/02/05 12:15:24;;;;;;;5.03;1.10;;;6.30;83.10;;;;;;5024413;28;20197;-85
2022/02/05 12:18:24;;;;;;;2.30;1.10;;;6.30;82.60;;;;;;5024686;28;20347;-85
2022/02/05 12:21:12;;;;;;;4.32;1.40;;;6.20;82.90;;;;;;5057972;28;20222;-85
2022/02/05 12:26:46;;;;;;;4.78;1.90;;;6.20;82.20;;;;;;5028779;28;20226;-85
2022/02/05 12:29:25;;;;;;;4.95;1.15;;;6.30;82.70;;;;;;5068086;28;20222;-85
2022/02/05 12:31:53;;;;;;;2.20;1.00;;;6.50;83.10;;;;;;5066653;28;20735;-85
2022/02/05 12:34:20;;;;;;;4.82;1.58;;;6.40;81.50;;;;;;5056898;28;20274;-86
2022/02/05 12:36:50;;;;;;;3.33;3.05;;;6.50;82.40;;;;;;5062010;28;20282;-85
2022/02/05 12:39:19;;;;;;;1.08;0.82;;;6.70;90.50;;;;;;5062192;28;20391;-86
2022/02/05 12:41:47;;;;;;;2.33;1.35;;;6.70;91.30;;;;;;5065640;28;20195;-85
2022/02/05 12:44:15;;;;;;;1.65;1.00;;;6.60;82.00;;;;;;5064008;28;20224;-86
2022/02/05 12:46:48;;;;;;;3.20;2.38;;;6.80;82.00;;;;;;5048582;28;20207;-85
2022/02/05 12:49:21;;;;;;;4.32;1.00;;;6.50;80.70;;;;;;5049570;28;20253;-86
2022/02/05 12:51:49;;;;;;;1.50;1.35;;;6.60;81.50;;;;;;5063135;28;20672;-85
2022/02/05 12:54:20;;;;;;;4.15;1.60;;;6.70;82.50;;;;;;5062962;28;20245;-85
2022/02/05 12:56:48;;;;;;;3.10;1.13;;;6.70;82.20;;;;;;5053226;28;20679;-86
2022/02/05 12:59:22;;;;;;;2.25;1.75;;;6.70;82.20;;;;;;5066947;28;20199;-85
2022/02/05 13:01:54;;;;;;;2.35;1.67;;;6.60;79.90;;;;;;5070438;28;20199;-86
2022/02/05 13:04:24;;;;;;;2.58;1.30;;;6.70;80.60;;;;;;5071520;28;20299;-85
2022/02/05 13:07:01;;;;;;;3.08;1.25;;;6.70;81.40;;;;;;5071261;28;20226;-85
2022/02/05 13:09:29;;;;;;;2.20;2.00;;;6.90;89.80;;;;;;5072084;28;20199;-86
2022/02/05 13:12:00;;;;;;;2.58;1.75;;;6.70;79.40;;;;;;5072482;28;20199;-84
2022/02/05 13:14:44;;;;;;;4.65;1.00;;;6.80;79.80;;;;;;5071346;28;20325;-85
2022/02/05 13:17:28;;;;;;;1.48;1.38;;;6.80;79.10;;;;;;5051489;28;20214;-86
2022/02/05 13:20:17;;;;;;;2.05;1.13;;;6.90;77.80;;;;;;5058216;28;20204;-86
2022/02/05 13:28:31;;;;;;;0.93;0.70;;;6.90;78.60;;;;;;5071394;28;20207;-85
2022/02/05 13:33:56;;;;;;;1.02;0.77;;;6.80;78.60;;;;;;5070299;28;20252;-86
2022/02/05 13:36:38;;;;;;;4.25;1.05;;;6.90;80.30;;;;;;5071065;28;20653;-86
2022/02/05 13:39:20;;;;;;;2.20;1.60;;;6.90;77.30;;;;;;5070874;28;20191;-86
2022/02/05 13:41:53;;;;;;;1.00;0.88;;;7.40;90.10;;;;;;5071127;28;20202;-86
2022/02/05 13:44:22;;;;;;;1.40;1.02;;;6.90;89.70;;;;;;5070100;28;21178;-85
2022/02/05 13:47:07;;;;;;;3.10;1.27;;;7.00;79.10;;;;;;5071778;28;20281;-86
2022/02/05 13:49:35;;;;;;;2.33;1.70;;;7.00;80.50;;;;;;5071339;28;20191;-86
2022/02/05 13:52:09;;;;;;;8.52;3.65;;;7.00;78.80;;;;;;5072021;28;20272;-86
2022/02/05 13:54:37;;;;;;;6.55;3.10;;;7.20;90.00;;;;;;5066699;28;20232;-85
2022/02/05 13:57:05;;;;;;;3.85;2.40;;;7.00;77.20;;;;;;5070892;28;20227;-85
2022/02/05 13:59:34;;;;;;;2.60;2.40;;;6.90;76.50;;;;;;5071326;28;20283;-85
2022/02/05 14:02:16;;;;;;;1.70;1.60;;;7.10;90.20;;;;;;5056279;28;20223;-85
2022/02/05 14:04:43;;;;;;;2.33;2.13;;;6.80;77.60;;;;;;5070377;28;20219;-84
2022/02/05 14:07:11;;;;;;;3.45;1.98;;;6.70;85.20;;;;;;5070789;28;20257;-85
2022/02/05 14:09:38;;;;;;;5.18;3.28;;;6.80;77.70;;;;;;5070432;28;20196;-85
2022/02/05 14:12:16;;;;;;;3.97;3.38;;;6.80;77.80;;;;;;5069954;28;20318;-85
2022/02/05 14:14:43;;;;;;;5.18;3.25;;;6.80;78.00;;;;;;5070576;28;20675;-86
2022/02/05 14:17:18;;;;;;;1.48;1.33;;;6.50;89.50;;;;;;5071074;28;20199;-85
2022/02/05 14:19:46;;;;;;;3.63;2.45;;;6.40;82.40;;;;;;5065903;28;20269;-85
2022/02/05 14:22:23;;;;;;;6.53;4.15;;;6.00;83.90;;;;;;5056725;28;20196;-85
2022/02/05 14:25:09;;;;;;;12.63;9.27;;;6.40;74.60;;;;;;5069586;28;20218;-85
2022/02/05 14:27:39;;;;;;;8.50;5.07;;;6.40;77.20;;;;;;5070890;28;20286;-87
2022/02/05 14:30:13;;;;;;;12.10;6.90;;;6.30;79.10;;;;;;5069366;28;20199;-86
2022/02/05 14:32:47;;;;;;;8.45;4.80;;;6.40;76.90;;;;;;5069907;28;20202;-86
2022/02/05 14:35:33;;;;;;;4.32;2.15;;;6.40;88.10;;;;;;5070045;28;20201;-86
2022/02/05 14:40:47;;;;;;;5.03;3.65;;;6.30;76.50;;;;;;5070121;28;20286;-86
2022/02/05 14:43:16;;;;;;;12.77;8.93;;;6.40;77.60;;;;;;5051059;28;20204;-86
2022/02/05 14:45:43;;;;;;;17.98;11.05;;;6.30;76.20;;;;;;5057143;28;20605;-86
2022/02/05 14:48:10;;;;;;;6.80;3.55;;;6.20;76.60;;;;;;5070928;28;20378;-86
2022/02/05 14:50:37;;;;;;;14.63;7.22;;;6.30;79.00;;;;;;5070429;28;20204;-86
2022/02/05 14:53:07;;;;;;;20.25;11.57;;;6.10;78.60;;;;;;5070575;28;20649;-86
2022/02/05 14:55:34;;;;;;;13.32;9.30;;;6.30;82.50;;;;;;5063957;28;20195;-86
2022/02/05 14:58:02;;;;;;;16.38;7.00;;;6.20;77.00;;;;;;5070406;28;20555;-87
2022/02/05 15:00:29;;;;;;;6.32;3.63;;;6.20;75.80;;;;;;5070218;28;20231;-87
2022/02/05 15:02:56;;;;;;;8.25;2.83;;;6.10;76.90;;;;;;5070120;28;20237;-86
2022/02/05 15:05:24;;;;;;;3.90;3.20;;;6.00;79.00;;;;;;5068858;28;20919;-86
2022/02/05 15:07:51;;;;;;;9.57;6.68;;;5.90;77.50;;;;;;5070399;28;20199;-86
2022/02/05 15:10:21;;;;;;;3.47;2.20;;;5.60;83.20;;;;;;5070372;28;20199;-87
2022/02/05 15:12:50;;;;;;;4.53;2.85;;;5.90;77.80;;;;;;5070816;28;20207;-86